sensor_id;sensor_type;location;lat;lon;timestamp;temperature;humidity
43991;DHT22;29654;50.784;20.604;2023-04-03T00:02:18;8.20;58.20
43991;DHT22;29654;50.784;20.604;2023-04-03T00:07:20;8.10;58.10
43991;DHT22;29654;50.784;20.604;2023-04-03T00:12:24;8.10;58.10
43991;DHT22;29654;50.784;20.604;2023-04-03T00:17:26;8.10;58.10
43991;DHT22;29654;50.784;20.604;2023-04-03T00:22:29;8.10;58.30
43991;DHT22;29654;50.784;20.604;2023-04-03T00:27:35;8.00;58.30
43991;DHT22;29654;50.784;20.604;2023-04-03T00:32:38;8.00;58.40
43991;DHT22;29654;50.784;20.604;2023-04-03T00:37:41;8.10;58.30
43991;DHT22;29654;50.784;20.604;2023-04-03T00:42:47;8.00;58.20
43991;DHT22;29654;50.784;20.604;2023-04-03T00:47:50;8.00;58.30
43991;DHT22;29654;50.784;20.604;2023-04-03T00:52:53;8.00;58.40
43991;DHT22;29654;50.784;20.604;2023-04-03T00:57:58;8.00;58.40
43991;DHT22;29654;50.784;20.604;2023-04-03T01:03:02;7.90;58.40
43991;DHT22;29654;50.784;20.604;2023-04-03T01:08:06;7.90;58.30
43991;DHT22;29654;50.784;20.604;2023-04-03T01:13:21;7.90;58.20
43991;DHT22;29654;50.784;20.604;2023-04-03T01:18:26;7.80;58.60
43991;DHT22;29654;50.784;20.604;2023-04-03T01:23:38;7.70;58.40
43991;DHT22;29654;50.784;20.604;2023-04-03T01:28:50;7.70;58.70
43991;DHT22;29654;50.784;20.604;2023-04-03T01:33:57;7.70;58.50
43991;DHT22;29654;50.784;20.604;2023-04-03T01:39:01;7.70;58.50
43991;DHT22;29654;50.784;20.604;2023-04-03T01:44:04;7.70;58.50
43991;DHT22;29654;50.784;20.604;2023-04-03T01:49:09;7.70;58.40
43991;DHT22;29654;50.784;20.604;2023-04-03T01:54:12;7.70;58.60
43991;DHT22;29654;50.784;20.604;2023-04-03T01:59:14;7.80;58.50
43991;DHT22;29654;50.784;20.604;2023-04-03T02:04:21;7.70;58.40
43991;DHT22;29654;50.784;20.604;2023-04-03T02:09:23;7.70;58.50
43991;DHT22;29654;50.784;20.604;2023-04-03T02:14:27;7.70;58.50
43991;DHT22;29654;50.784;20.604;2023-04-03T02:19:31;7.70;58.40
43991;DHT22;29654;50.784;20.604;2023-04-03T02:24:34;7.70;58.50
43991;DHT22;29654;50.784;20.604;2023-04-03T02:29:36;7.70;58.30
43991;DHT22;29654;50.784;20.604;2023-04-03T02:34:40;7.60;58.30
43991;DHT22;29654;50.784;20.604;2023-04-03T02:39:45;7.60;58.50
43991;DHT22;29654;50.784;20.604;2023-04-03T02:44:48;7.50;58.40
43991;DHT22;29654;50.784;20.604;2023-04-03T02:49:52;7.40;58.50
43991;DHT22;29654;50.784;20.604;2023-04-03T02:54:54;7.40;58.50
43991;DHT22;29654;50.784;20.604;2023-04-03T02:59:57;7.40;58.70
43991;DHT22;29654;50.784;20.604;2023-04-03T03:05:01;7.40;58.60
43991;DHT22;29654;50.784;20.604;2023-04-03T03:10:05;7.40;58.60
43991;DHT22;29654;50.784;20.604;2023-04-03T03:15:08;7.40;58.50
43991;DHT22;29654;50.784;20.604;2023-04-03T03:20:13;7.40;58.50
43991;DHT22;29654;50.784;20.604;2023-04-03T03:25:16;7.40;58.50
43991;DHT22;29654;50.784;20.604;2023-04-03T03:30:18;7.30;58.50
43991;DHT22;29654;50.784;20.604;2023-04-03T03:35:23;7.30;58.60
43991;DHT22;29654;50.784;20.604;2023-04-03T03:40:26;7.30;58.50
43991;DHT22;29654;50.784;20.604;2023-04-03T03:45:28;7.30;58.40
43991;DHT22;29654;50.784;20.604;2023-04-03T03:50:33;7.30;58.40
43991;DHT22;29654;50.784;20.604;2023-04-03T03:55:36;7.30;58.40
43991;DHT22;29654;50.784;20.604;2023-04-03T04:00:39;7.20;58.20
43991;DHT22;29654;50.784;20.604;2023-04-03T04:05:44;7.30;58.40
43991;DHT22;29654;50.784;20.604;2023-04-03T04:10:46;7.20;58.30
43991;DHT22;29654;50.784;20.604;2023-04-03T04:15:51;7.20;58.40
43991;DHT22;29654;50.784;20.604;2023-04-03T04:20:55;7.10;58.30
43991;DHT22;29654;50.784;20.604;2023-04-03T04:25:58;7.10;58.40
43991;DHT22;29654;50.784;20.604;2023-04-03T04:31:04;7.10;58.30
43991;DHT22;29654;50.784;20.604;2023-04-03T04:36:08;7.10;58.20
43991;DHT22;29654;50.784;20.604;2023-04-03T04:41:12;7.10;58.30
43991;DHT22;29654;50.784;20.604;2023-04-03T04:46:15;7.10;58.10
43991;DHT22;29654;50.784;20.604;2023-04-03T04:51:24;7.10;58.00
43991;DHT22;29654;50.784;20.604;2023-04-03T04:56:27;7.10;57.90
43991;DHT22;29654;50.784;20.604;2023-04-03T05:01:31;7.10;57.90
43991;DHT22;29654;50.784;20.604;2023-04-03T05:06:42;7.10;57.90
43991;DHT22;29654;50.784;20.604;2023-04-03T05:11:50;7.10;57.80
43991;DHT22;29654;50.784;20.604;2023-04-03T05:16:56;7.10;57.80
43991;DHT22;29654;50.784;20.604;2023-04-03T05:22:04;7.20;57.80
43991;DHT22;29654;50.784;20.604;2023-04-03T05:27:07;7.20;57.70
43991;DHT22;29654;50.784;20.604;2023-04-03T05:32:13;7.20;57.70
43991;DHT22;29654;50.784;20.604;2023-04-03T05:37:18;7.30;57.60
43991;DHT22;29654;50.784;20.604;2023-04-03T05:42:20;7.30;57.50
43991;DHT22;29654;50.784;20.604;2023-04-03T05:47:23;7.30;57.40
43991;DHT22;29654;50.784;20.604;2023-04-03T05:52:29;7.30;57.30
43991;DHT22;29654;50.784;20.604;2023-04-03T05:57:33;7.30;57.60
43991;DHT22;29654;50.784;20.604;2023-04-03T06:02:35;7.30;57.20
43991;DHT22;29654;50.784;20.604;2023-04-03T06:07:40;7.30;57.20
43991;DHT22;29654;50.784;20.604;2023-04-03T06:12:45;7.40;57.40
43991;DHT22;29654;50.784;20.604;2023-04-03T06:17:48;7.40;57.30
43991;DHT22;29654;50.784;20.604;2023-04-03T06:22:52;7.50;57.40
43991;DHT22;29654;50.784;20.604;2023-04-03T06:27:55;7.50;57.40
43991;DHT22;29654;50.784;20.604;2023-04-03T06:32:57;7.60;57.20
43991;DHT22;29654;50.784;20.604;2023-04-03T06:38:01;7.70;57.10
43991;DHT22;29654;50.784;20.604;2023-04-03T06:43:09;7.70;56.70
43991;DHT22;29654;50.784;20.604;2023-04-03T06:48:12;7.70;56.80
43991;DHT22;29654;50.784;20.604;2023-04-03T06:53:16;7.80;56.90
43991;DHT22;29654;50.784;20.604;2023-04-03T06:58:19;7.80;56.80
43991;DHT22;29654;50.784;20.604;2023-04-03T07:03:22;7.90;56.80
43991;DHT22;29654;50.784;20.604;2023-04-03T07:08:26;7.90;56.80
43991;DHT22;29654;50.784;20.604;2023-04-03T07:13:29;8.00;56.70
43991;DHT22;29654;50.784;20.604;2023-04-03T07:18:32;8.10;56.70
43991;DHT22;29654;50.784;20.604;2023-04-03T07:23:36;8.10;56.50
43991;DHT22;29654;50.784;20.604;2023-04-03T07:28:39;8.20;57.30
43991;DHT22;29654;50.784;20.604;2023-04-03T07:33:42;8.30;56.70
43991;DHT22;29654;50.784;20.604;2023-04-03T07:38:47;8.40;56.50
43991;DHT22;29654;50.784;20.604;2023-04-03T07:43:50;8.40;56.00
43991;DHT22;29654;50.784;20.604;2023-04-03T07:48:52;8.50;56.20
43991;DHT22;29654;50.784;20.604;2023-04-03T07:53:56;8.40;55.80
43991;DHT22;29654;50.784;20.604;2023-04-03T07:58:59;8.40;55.80
43991;DHT22;29654;50.784;20.604;2023-04-03T08:04:01;8.40;55.90
43991;DHT22;29654;50.784;20.604;2023-04-03T08:09:05;8.40;56.10
43991;DHT22;29654;50.784;20.604;2023-04-03T08:14:09;8.50;56.00
43991;DHT22;29654;50.784;20.604;2023-04-03T08:19:16;8.50;55.90
43991;DHT22;29654;50.784;20.604;2023-04-03T08:24:20;8.60;55.80
43991;DHT22;29654;50.784;20.604;2023-04-03T08:29:23;8.60;55.20
43991;DHT22;29654;50.784;20.604;2023-04-03T08:34:26;8.60;55.40
43991;DHT22;29654;50.784;20.604;2023-04-03T08:39:30;8.50;55.40
43991;DHT22;29654;50.784;20.604;2023-04-03T08:44:39;8.50;55.60
43991;DHT22;29654;50.784;20.604;2023-04-03T08:49:49;8.50;55.60
43991;DHT22;29654;50.784;20.604;2023-04-03T08:54:57;8.50;55.40
43991;DHT22;29654;50.784;20.604;2023-04-03T09:00:05;8.60;55.60
43991;DHT22;29654;50.784;20.604;2023-04-03T09:05:13;8.60;55.50
43991;DHT22;29654;50.784;20.604;2023-04-03T09:10:23;8.60;55.30
43991;DHT22;29654;50.784;20.604;2023-04-03T09:15:29;8.60;55.10
43991;DHT22;29654;50.784;20.604;2023-04-03T09:20:41;8.60;55.20
43991;DHT22;29654;50.784;20.604;2023-04-03T09:25:48;8.50;55.10
43991;DHT22;29654;50.784;20.604;2023-04-03T09:30:51;8.50;55.20
43991;DHT22;29654;50.784;20.604;2023-04-03T09:35:53;8.50;55.40
43991;DHT22;29654;50.784;20.604;2023-04-03T09:41:05;8.50;55.60
43991;DHT22;29654;50.784;20.604;2023-04-03T09:46:28;8.60;55.40
43991;DHT22;29654;50.784;20.604;2023-04-03T09:51:32;8.80;55.50
43991;DHT22;29654;50.784;20.604;2023-04-03T09:56:37;8.90;55.80
43991;DHT22;29654;50.784;20.604;2023-04-03T10:01:42;9.00;55.70
43991;DHT22;29654;50.784;20.604;2023-04-03T10:06:48;9.20;55.60
43991;DHT22;29654;50.784;20.604;2023-04-03T10:12:04;9.30;55.30
43991;DHT22;29654;50.784;20.604;2023-04-03T10:17:17;9.50;55.20
43991;DHT22;29654;50.784;20.604;2023-04-03T10:22:32;9.60;54.80
43991;DHT22;29654;50.784;20.604;2023-04-03T10:27:51;9.60;54.30
43991;DHT22;29654;50.784;20.604;2023-04-03T10:33:05;9.60;54.30
43991;DHT22;29654;50.784;20.604;2023-04-03T10:38:20;9.70;54.80
43991;DHT22;29654;50.784;20.604;2023-04-03T10:43:33;9.70;54.10
43991;DHT22;29654;50.784;20.604;2023-04-03T10:49:10;9.70;54.10
43991;DHT22;29654;50.784;20.604;2023-04-03T10:54:24;9.80;53.60
43991;DHT22;29654;50.784;20.604;2023-04-03T10:59:32;9.80;54.30
43991;DHT22;29654;50.784;20.604;2023-04-03T11:04:39;9.80;54.20
43991;DHT22;29654;50.784;20.604;2023-04-03T11:09:44;9.90;54.40
43991;DHT22;29654;50.784;20.604;2023-04-03T11:14:50;10.00;54.20
43991;DHT22;29654;50.784;20.604;2023-04-03T11:20:00;10.10;53.70
43991;DHT22;29654;50.784;20.604;2023-04-03T11:25:15;10.30;52.40
43991;DHT22;29654;50.784;20.604;2023-04-03T11:30:27;10.30;52.30
43991;DHT22;29654;50.784;20.604;2023-04-03T11:35:32;10.20;52.60
43991;DHT22;29654;50.784;20.604;2023-04-03T11:40:36;10.20;52.80
43991;DHT22;29654;50.784;20.604;2023-04-03T11:45:54;10.30;52.90
43991;DHT22;29654;50.784;20.604;2023-04-03T11:51:00;10.40;52.30
43991;DHT22;29654;50.784;20.604;2023-04-03T11:56:29;10.50;53.20
43991;DHT22;29654;50.784;20.604;2023-04-03T12:01:52;10.70;51.60
43991;DHT22;29654;50.784;20.604;2023-04-03T12:07:13;10.80;51.50
43991;DHT22;29654;50.784;20.604;2023-04-03T12:12:35;10.90;52.50
43991;DHT22;29654;50.784;20.604;2023-04-03T12:17:40;11.00;51.60
43991;DHT22;29654;50.784;20.604;2023-04-03T12:23:07;11.00;51.50
43991;DHT22;29654;50.784;20.604;2023-04-03T12:28:10;10.90;50.60
43991;DHT22;29654;50.784;20.604;2023-04-03T12:33:23;11.80;46.50
43991;DHT22;29654;50.784;20.604;2023-04-03T12:44:33;11.20;48.70
43991;DHT22;29654;50.784;20.604;2023-04-03T12:49:42;11.10;50.00
43991;DHT22;29654;50.784;20.604;2023-04-03T12:54:46;11.00;50.10
43991;DHT22;29654;50.784;20.604;2023-04-03T12:59:50;11.00;50.30
43991;DHT22;29654;50.784;20.604;2023-04-03T13:04:56;10.90;50.20
43991;DHT22;29654;50.784;20.604;2023-04-03T13:10:13;10.90;50.20
43991;DHT22;29654;50.784;20.604;2023-04-03T13:15:20;10.90;49.90
43991;DHT22;29654;50.784;20.604;2023-04-03T13:20:29;10.90;50.40
43991;DHT22;29654;50.784;20.604;2023-04-03T13:25:35;10.90;49.90
43991;DHT22;29654;50.784;20.604;2023-04-03T13:30:40;10.90;50.30
43991;DHT22;29654;50.784;20.604;2023-04-03T13:35:45;10.90;50.10
43991;DHT22;29654;50.784;20.604;2023-04-03T13:40:49;11.00;50.00
43991;DHT22;29654;50.784;20.604;2023-04-03T13:46:02;11.00;50.00
43991;DHT22;29654;50.784;20.604;2023-04-03T13:51:19;11.00;49.50
43991;DHT22;29654;50.784;20.604;2023-04-03T13:56:29;11.00;48.80
43991;DHT22;29654;50.784;20.604;2023-04-03T14:01:41;10.90;49.40
43991;DHT22;29654;50.784;20.604;2023-04-03T14:06:47;10.90;49.60
43991;DHT22;29654;50.784;20.604;2023-04-03T14:11:53;10.90;48.90
43991;DHT22;29654;50.784;20.604;2023-04-03T14:16:58;10.80;49.40
43991;DHT22;29654;50.784;20.604;2023-04-03T14:22:14;10.80;49.60
43991;DHT22;29654;50.784;20.604;2023-04-03T14:27:20;10.80;48.10
43991;DHT22;29654;50.784;20.604;2023-04-03T14:32:24;10.80;49.00
43991;DHT22;29654;50.784;20.604;2023-04-03T14:37:30;10.80;48.90
43991;DHT22;29654;50.784;20.604;2023-04-03T14:42:35;10.70;49.00
43991;DHT22;29654;50.784;20.604;2023-04-03T14:47:42;10.70;49.30
43991;DHT22;29654;50.784;20.604;2023-04-03T14:52:50;10.70;48.80
43991;DHT22;29654;50.784;20.604;2023-04-03T14:57:54;10.60;48.90
43991;DHT22;29654;50.784;20.604;2023-04-03T15:02:57;10.60;49.30
43991;DHT22;29654;50.784;20.604;2023-04-03T15:08:00;10.60;49.50
43991;DHT22;29654;50.784;20.604;2023-04-03T15:13:03;10.60;49.10
43991;DHT22;29654;50.784;20.604;2023-04-03T15:18:06;10.50;48.90
43991;DHT22;29654;50.784;20.604;2023-04-03T15:23:11;10.40;48.40
43991;DHT22;29654;50.784;20.604;2023-04-03T15:28:18;10.40;48.70
43991;DHT22;29654;50.784;20.604;2023-04-03T15:33:24;10.40;48.30
43991;DHT22;29654;50.784;20.604;2023-04-03T15:38:29;10.30;48.70
43991;DHT22;29654;50.784;20.604;2023-04-03T15:43:32;10.30;48.40
43991;DHT22;29654;50.784;20.604;2023-04-03T15:48:36;10.20;48.60
43991;DHT22;29654;50.784;20.604;2023-04-03T15:53:40;10.10;48.50
43991;DHT22;29654;50.784;20.604;2023-04-03T15:58:42;10.00;48.60
43991;DHT22;29654;50.784;20.604;2023-04-03T16:03:45;10.00;49.00
43991;DHT22;29654;50.784;20.604;2023-04-03T16:08:49;10.00;48.80
43991;DHT22;29654;50.784;20.604;2023-04-03T16:13:53;10.00;48.90
43991;DHT22;29654;50.784;20.604;2023-04-03T16:18:56;9.90;48.70
43991;DHT22;29654;50.784;20.604;2023-04-03T16:24:00;9.90;49.00
43991;DHT22;29654;50.784;20.604;2023-04-03T16:29:03;9.90;48.80
43991;DHT22;29654;50.784;20.604;2023-04-03T16:34:06;9.80;49.00
43991;DHT22;29654;50.784;20.604;2023-04-03T16:39:10;9.90;49.00
43991;DHT22;29654;50.784;20.604;2023-04-03T16:44:12;9.80;48.80
43991;DHT22;29654;50.784;20.604;2023-04-03T16:49:15;9.80;48.80
43991;DHT22;29654;50.784;20.604;2023-04-03T16:54:19;9.80;48.80
43991;DHT22;29654;50.784;20.604;2023-04-03T16:59:22;9.70;48.70
43991;DHT22;29654;50.784;20.604;2023-04-03T17:04:25;9.70;48.70
43991;DHT22;29654;50.784;20.604;2023-04-03T17:09:29;9.60;48.80
43991;DHT22;29654;50.784;20.604;2023-04-03T17:14:32;9.50;48.70
43991;DHT22;29654;50.784;20.604;2023-04-03T17:19:34;9.50;48.80
43991;DHT22;29654;50.784;20.604;2023-04-03T17:24:39;9.50;48.70
43991;DHT22;29654;50.784;20.604;2023-04-03T17:29:41;9.40;48.80
43991;DHT22;29654;50.784;20.604;2023-04-03T17:34:45;9.40;48.90
43991;DHT22;29654;50.784;20.604;2023-04-03T17:39:49;9.40;48.80
43991;DHT22;29654;50.784;20.604;2023-04-03T17:44:53;9.40;48.90
43991;DHT22;29654;50.784;20.604;2023-04-03T17:49:55;9.40;48.90
43991;DHT22;29654;50.784;20.604;2023-04-03T17:54:59;9.40;48.80
43991;DHT22;29654;50.784;20.604;2023-04-03T18:00:04;9.40;48.80
43991;DHT22;29654;50.784;20.604;2023-04-03T18:05:13;9.40;48.80
43991;DHT22;29654;50.784;20.604;2023-04-03T18:10:17;9.30;48.90
43991;DHT22;29654;50.784;20.604;2023-04-03T18:15:19;9.30;49.00
43991;DHT22;29654;50.784;20.604;2023-04-03T18:20:22;9.30;49.10
43991;DHT22;29654;50.784;20.604;2023-04-03T18:25:26;9.40;49.00
43991;DHT22;29654;50.784;20.604;2023-04-03T18:30:29;9.40;48.80
43991;DHT22;29654;50.784;20.604;2023-04-03T18:35:31;9.20;48.40
43991;DHT22;29654;50.784;20.604;2023-04-03T18:40:35;9.20;48.60
43991;DHT22;29654;50.784;20.604;2023-04-03T18:45:39;9.10;48.60
43991;DHT22;29654;50.784;20.604;2023-04-03T18:50:41;9.00;49.30
43991;DHT22;29654;50.784;20.604;2023-04-03T18:55:46;9.00;48.80
43991;DHT22;29654;50.784;20.604;2023-04-03T19:00:48;9.00;48.80
43991;DHT22;29654;50.784;20.604;2023-04-03T19:05:51;8.90;48.80
43991;DHT22;29654;50.784;20.604;2023-04-03T19:10:55;8.90;48.80
43991;DHT22;29654;50.784;20.604;2023-04-03T19:15:57;8.80;48.80
43991;DHT22;29654;50.784;20.604;2023-04-03T19:21:01;8.80;48.80
43991;DHT22;29654;50.784;20.604;2023-04-03T19:26:07;8.80;48.80
43991;DHT22;29654;50.784;20.604;2023-04-03T19:31:11;8.70;48.70
43991;DHT22;29654;50.784;20.604;2023-04-03T19:36:15;8.70;48.80
43991;DHT22;29654;50.784;20.604;2023-04-03T19:41:22;8.60;48.80
43991;DHT22;29654;50.784;20.604;2023-04-03T19:46:28;8.60;48.70
43991;DHT22;29654;50.784;20.604;2023-04-03T19:51:31;8.50;48.70
43991;DHT22;29654;50.784;20.604;2023-04-03T19:56:35;8.40;48.80
43991;DHT22;29654;50.784;20.604;2023-04-03T20:01:38;8.30;48.70
43991;DHT22;29654;50.784;20.604;2023-04-03T20:06:40;8.30;48.90
43991;DHT22;29654;50.784;20.604;2023-04-03T20:11:44;8.20;49.00
43991;DHT22;29654;50.784;20.604;2023-04-03T20:16:48;8.10;49.00
43991;DHT22;29654;50.784;20.604;2023-04-03T20:21:51;8.00;49.10
43991;DHT22;29654;50.784;20.604;2023-04-03T20:26:57;8.00;49.20
43991;DHT22;29654;50.784;20.604;2023-04-03T20:32:01;7.90;49.20
43991;DHT22;29654;50.784;20.604;2023-04-03T20:37:07;7.80;49.30
43991;DHT22;29654;50.784;20.604;2023-04-03T20:42:11;7.80;49.30
43991;DHT22;29654;50.784;20.604;2023-04-03T20:47:14;7.70;49.40
43991;DHT22;29654;50.784;20.604;2023-04-03T20:52:17;7.70;49.50
43991;DHT22;29654;50.784;20.604;2023-04-03T20:57:21;7.70;49.60
43991;DHT22;29654;50.784;20.604;2023-04-03T21:02:23;7.70;49.60
43991;DHT22;29654;50.784;20.604;2023-04-03T21:19:29;7.60;49.60
43991;DHT22;29654;50.784;20.604;2023-04-03T21:24:31;7.60;49.90
43991;DHT22;29654;50.784;20.604;2023-04-03T21:29:34;7.60;50.00
43991;DHT22;29654;50.784;20.604;2023-04-03T21:34:37;7.60;50.00
43991;DHT22;29654;50.784;20.604;2023-04-03T21:39:40;7.60;50.00
43991;DHT22;29654;50.784;20.604;2023-04-03T21:44:43;7.60;50.00
43991;DHT22;29654;50.784;20.604;2023-04-03T21:49:50;7.70;50.10
43991;DHT22;29654;50.784;20.604;2023-04-03T21:54:53;7.70;50.00
43991;DHT22;29654;50.784;20.604;2023-04-03T21:59:55;7.70;50.10
43991;DHT22;29654;50.784;20.604;2023-04-03T22:04:59;7.70;50.00
43991;DHT22;29654;50.784;20.604;2023-04-03T22:10:02;7.70;50.00
43991;DHT22;29654;50.784;20.604;2023-04-03T22:15:07;7.70;50.10
43991;DHT22;29654;50.784;20.604;2023-04-03T22:20:12;7.70;50.10
43991;DHT22;29654;50.784;20.604;2023-04-03T22:25:14;7.70;50.00
43991;DHT22;29654;50.784;20.604;2023-04-03T22:30:17;7.70;50.10
43991;DHT22;29654;50.784;20.604;2023-04-03T22:35:21;7.70;50.10
43991;DHT22;29654;50.784;20.604;2023-04-03T22:40:23;7.70;50.00
43991;DHT22;29654;50.784;20.604;2023-04-03T22:45:26;7.70;50.00
43991;DHT22;29654;50.784;20.604;2023-04-03T22:50:30;7.60;50.00
43991;DHT22;29654;50.784;20.604;2023-04-03T22:55:33;7.70;50.00
43991;DHT22;29654;50.784;20.604;2023-04-03T23:00:36;7.60;50.00
43991;DHT22;29654;50.784;20.604;2023-04-03T23:05:40;7.60;50.00
43991;DHT22;29654;50.784;20.604;2023-04-03T23:10:42;7.60;50.00
43991;DHT22;29654;50.784;20.604;2023-04-03T23:15:51;7.60;49.90
43991;DHT22;29654;50.784;20.604;2023-04-03T23:20:57;7.60;49.80
43991;DHT22;29654;50.784;20.604;2023-04-03T23:26:00;7.50;49.90
43991;DHT22;29654;50.784;20.604;2023-04-03T23:31:04;7.40;49.90
43991;DHT22;29654;50.784;20.604;2023-04-03T23:36:10;7.30;49.90
43991;DHT22;29654;50.784;20.604;2023-04-03T23:41:15;7.30;50.00
43991;DHT22;29654;50.784;20.604;2023-04-03T23:46:18;7.20;50.10
43991;DHT22;29654;50.784;20.604;2023-04-03T23:51:22;7.10;50.10
43991;DHT22;29654;50.784;20.604;2023-04-03T23:56:24;7.00;50.20
